createdAt,value
2018-12-21T00:00:59.434Z,98.90
2018-12-21T00:03:33.518Z,98.51
2018-12-21T00:06:06.410Z,98.49
2018-12-21T00:08:39.530Z,98.70
2018-12-21T00:11:12.541Z,99.13
2018-12-21T00:13:46.677Z,99.63
2018-12-21T00:16:24.652Z,98.76
2018-12-21T00:18:57.531Z,98.88
2018-12-21T00:46:54.343Z,99.89
2018-12-21T00:49:27.953Z,99.91
2018-12-21T00:52:00.573Z,99.85
2018-12-21T00:54:33.781Z,99.64
2018-12-21T00:57:06.882Z,100.00
2018-12-21T00:59:40.128Z,100.00
2018-12-21T01:02:17.037Z,99.68
2018-12-21T01:04:49.821Z,100.00
2018-12-21T01:07:22.769Z,99.76
2018-12-21T01:09:55.887Z,99.91
2018-12-21T01:12:28.723Z,100.00
2018-12-21T01:15:03.941Z,99.97
2018-12-21T01:17:36.904Z,99.41
2018-12-21T01:20:10.228Z,99.64
2018-12-21T01:22:42.958Z,99.68
2018-12-21T01:25:18.081Z,99.06
2018-12-21T01:27:54.593Z,99.20
2018-12-21T01:30:27.499Z,99.35
2018-12-21T01:33:00.434Z,98.64
2018-12-21T01:35:33.462Z,99.53
2018-12-21T01:38:06.659Z,99.21
2018-12-21T01:40:39.659Z,98.99
2018-12-21T01:43:12.785Z,99.45
2018-12-21T01:45:48.515Z,98.71
2018-12-21T01:48:23.001Z,98.99
2018-12-21T01:50:56.077Z,99.29
2018-12-21T01:53:28.485Z,99.20
2018-12-21T01:56:01.558Z,99.05
2018-12-21T01:58:34.355Z,98.62
2018-12-21T02:01:07.215Z,98.36
2018-12-21T02:03:39.872Z,98.49
2018-12-21T02:06:12.066Z,98.27
2018-12-21T02:08:44.360Z,98.48
2018-12-21T02:11:17.392Z,98.22
2018-12-21T02:13:49.584Z,98.12
2018-12-21T02:16:22.483Z,98.23
2018-12-21T02:18:55.537Z,98.23
2018-12-21T02:21:28.466Z,97.82
2018-12-21T02:24:01.331Z,98.53
2018-12-21T02:26:34.241Z,97.95
2018-12-21T02:29:07.691Z,98.17
2018-12-21T02:31:40.293Z,98.06
2018-12-21T02:34:12.954Z,97.72
2018-12-21T02:36:45.717Z,98.05
2018-12-21T02:39:18.806Z,98.21
2018-12-21T02:41:51.732Z,98.47
2018-12-21T02:44:24.645Z,97.62
2018-12-21T02:46:57.697Z,97.78
2018-12-21T02:49:30.762Z,97.00
2018-12-21T02:52:06.835Z,97.27
2018-12-21T02:54:38.892Z,96.65
2018-12-21T02:57:11.953Z,96.74
2018-12-21T02:59:44.072Z,96.90
2018-12-21T03:02:16.192Z,96.47
2018-12-21T03:04:49.612Z,96.49
2018-12-21T03:07:22.298Z,96.58
2018-12-21T03:09:54.318Z,96.26
2018-12-21T03:12:27.427Z,96.86
2018-12-21T03:15:00.564Z,96.22
2018-12-21T03:17:33.542Z,96.27
2018-12-21T03:20:06.510Z,95.65
2018-12-21T03:22:39.314Z,96.42
2018-12-21T03:25:12.365Z,95.55
2018-12-21T03:27:45.157Z,95.39
2018-12-21T03:30:18.188Z,95.12
2018-12-21T03:32:50.264Z,95.52
2018-12-21T03:35:23.330Z,95.26
2018-12-21T03:37:56.936Z,94.81
2018-12-21T03:40:29.991Z,95.11
2018-12-21T03:43:03.212Z,94.97
2018-12-21T03:45:35.934Z,94.95
2018-12-21T03:48:08.555Z,95.00
2018-12-21T03:50:41.608Z,94.99
2018-12-21T03:53:14.522Z,95.65
2018-12-21T03:55:47.501Z,94.58
2018-12-21T03:58:20.518Z,95.27
2018-12-21T04:00:53.301Z,94.89
2018-12-21T04:03:26.449Z,94.78
2018-12-21T04:05:59.240Z,94.93
2018-12-21T04:08:32.239Z,94.38
2018-12-21T04:11:05.322Z,95.05
2018-12-21T04:13:39.285Z,94.31
2018-12-21T04:16:12.349Z,94.33
2018-12-21T04:18:49.327Z,95.02
2018-12-21T04:21:21.728Z,94.80
2018-12-21T04:23:54.729Z,94.27
2018-12-21T04:26:27.829Z,94.41
2018-12-21T04:29:00.661Z,93.95
2018-12-21T04:31:33.684Z,93.88
2018-12-21T04:34:05.993Z,93.48
2018-12-21T04:36:38.945Z,93.84
2018-12-21T04:39:11.833Z,93.55
2018-12-21T04:41:44.323Z,92.67
2018-12-21T04:44:17.073Z,92.40
2018-12-21T04:46:49.839Z,92.81
2018-12-21T04:49:22.724Z,93.16
2018-12-21T04:51:59.617Z,92.45
2018-12-21T04:54:32.706Z,92.28
2018-12-21T04:57:05.781Z,92.35
2018-12-21T04:59:37.783Z,91.88
2018-12-21T05:02:10.973Z,92.15
2018-12-21T05:04:44.179Z,91.34
2018-12-21T05:07:16.886Z,91.50
2018-12-21T05:09:49.802Z,91.59
2018-12-21T05:12:26.444Z,91.48
2018-12-21T05:14:59.122Z,91.15
2018-12-21T05:17:32.081Z,91.22
2018-12-21T05:20:08.553Z,91.37
2018-12-21T05:22:41.273Z,91.17
2018-12-21T05:25:14.428Z,91.26
2018-12-21T05:27:47.500Z,90.59
2018-12-21T05:30:20.677Z,91.26
2018-12-21T05:32:53.841Z,90.78
2018-12-21T05:35:26.013Z,90.26
2018-12-21T05:37:58.993Z,90.33
2018-12-21T05:40:31.967Z,91.17
2018-12-21T05:43:08.304Z,91.03
2018-12-21T05:45:40.558Z,91.25
2018-12-21T05:48:12.718Z,92.26
2018-12-21T05:50:48.975Z,92.89
2018-12-21T05:53:21.901Z,93.77
2018-12-21T05:55:55.097Z,93.23
2018-12-21T05:58:28.093Z,94.93
2018-12-21T06:01:01.094Z,95.56
2018-12-21T06:03:34.045Z,95.06
2018-12-21T06:06:10.417Z,95.56
2018-12-21T06:08:43.469Z,95.75
2018-12-21T06:11:16.341Z,95.97
2018-12-21T06:13:49.449Z,96.34
2018-12-21T06:16:26.209Z,96.81
2018-12-21T06:19:03.193Z,97.22
2018-12-21T06:21:32.200Z,96.79
2018-12-21T06:24:05.122Z,96.78
2018-12-21T06:26:37.933Z,97.36
2018-12-21T06:29:10.841Z,97.62
2018-12-21T06:31:43.917Z,97.63
2018-12-21T06:34:20.034Z,97.12
2018-12-21T06:36:53.017Z,97.58
2018-12-21T06:39:25.973Z,97.79
2018-12-21T06:41:58.997Z,97.12
2018-12-21T06:44:31.765Z,97.83
2018-12-21T06:47:04.805Z,97.78
2018-12-21T06:49:38.127Z,98.00
2018-12-21T06:52:14.658Z,97.19
2018-12-21T06:54:51.404Z,97.96
2018-12-21T06:57:24.152Z,98.31
2018-12-21T06:59:56.662Z,98.43
2018-12-21T07:02:29.728Z,98.16
2018-12-21T07:05:02.825Z,98.31
2018-12-21T07:07:35.530Z,98.26
2018-12-21T07:10:07.870Z,98.20
2018-12-21T07:12:44.311Z,99.03
2018-12-21T07:15:21.456Z,98.40
2018-12-21T07:17:58.278Z,98.35
2018-12-21T07:20:38.369Z,98.36
2018-12-21T07:23:10.910Z,98.41
2018-12-21T07:25:48.061Z,98.57
2018-12-21T07:28:19.173Z,99.43
2018-12-21T07:30:56.129Z,98.60
2018-12-21T07:33:32.923Z,99.70
2018-12-21T07:36:08.486Z,99.06
2018-12-21T07:38:38.557Z,99.02
2018-12-21T07:41:15.674Z,99.21
2018-12-21T07:43:48.461Z,98.80
2018-12-21T07:46:28.418Z,99.18
2018-12-21T07:49:01.453Z,99.48
2018-12-21T07:51:32.349Z,98.96
2018-12-21T07:54:05.557Z,99.49
2018-12-21T07:59:12.165Z,99.15
2018-12-21T08:01:43.196Z,99.94
2018-12-21T08:04:16.057Z,99.76
2018-12-21T08:06:49.116Z,99.95
2018-12-21T08:09:21.998Z,99.80
2018-12-21T08:11:51.021Z,99.88
2018-12-21T08:14:27.504Z,100.00
2018-12-21T08:17:00.201Z,99.86
2018-12-21T08:19:32.970Z,99.81
2018-12-21T08:22:05.970Z,99.74
2018-12-21T08:24:43.624Z,99.73
2018-12-21T08:27:20.443Z,100.00
2018-12-21T08:29:57.242Z,100.00
2018-12-21T08:32:30.095Z,100.00
2018-12-21T08:35:03.045Z,99.83
2018-12-21T08:37:35.929Z,100.00
2018-12-21T08:40:10.172Z,99.64
2018-12-21T08:42:47.609Z,100.00
2018-12-21T08:45:24.145Z,99.79
2018-12-21T08:47:56.325Z,100.00
2018-12-21T08:50:29.392Z,100.00
2018-12-21T08:53:02.357Z,99.78
2018-12-21T08:55:35.530Z,99.82
2018-12-21T08:58:08.493Z,99.79
2018-12-21T09:00:46.614Z,100.00
2018-12-21T09:03:20.418Z,100.00
2018-12-21T09:06:18.547Z,100.00
2018-12-21T09:08:55.513Z,99.91
2018-12-21T09:11:28.412Z,100.00
2018-12-21T09:14:07.153Z,100.00
2018-12-21T09:16:43.566Z,100.00
2018-12-21T09:19:12.881Z,100.00
2018-12-21T09:21:49.802Z,100.00
2018-12-21T09:24:22.624Z,100.00
2018-12-21T09:26:51.785Z,100.00
2018-12-21T09:29:20.927Z,100.00
2018-12-21T09:31:50.037Z,100.00
2018-12-21T09:34:19.165Z,100.00
2018-12-21T09:36:48.181Z,100.00
2018-12-21T09:39:17.411Z,100.00
2018-12-21T09:41:46.437Z,100.00
2018-12-21T09:44:15.717Z,100.00
2018-12-21T09:46:44.720Z,100.00
2018-12-21T09:49:13.798Z,100.00
2018-12-21T09:51:42.881Z,100.00
2018-12-21T09:54:13.245Z,100.00
2018-12-21T09:56:42.389Z,100.00
2018-12-21T09:59:11.507Z,100.00
2018-12-21T10:01:40.559Z,100.00
2018-12-21T10:04:09.543Z,100.00
2018-12-21T10:06:59.425Z,100.00
2018-12-21T10:09:28.492Z,100.00
2018-12-21T10:11:57.490Z,100.00
2018-12-21T10:14:26.586Z,100.00
2018-12-21T10:16:55.570Z,100.00
2018-12-21T10:19:24.682Z,100.00
2018-12-21T10:21:53.786Z,100.00
2018-12-21T10:24:22.826Z,100.00
2018-12-21T10:26:51.886Z,100.00
2018-12-21T10:30:04.727Z,100.00
2018-12-21T10:32:34.445Z,100.00
2018-12-21T10:35:27.318Z,100.00
2018-12-21T10:37:56.502Z,100.00
2018-12-21T10:40:25.581Z,100.00
2018-12-21T10:42:54.757Z,100.00
2018-12-21T10:45:24.477Z,100.00
2018-12-21T10:48:01.141Z,100.00
2018-12-21T10:50:43.353Z,100.00
2018-12-21T10:53:22.849Z,100.00
2018-12-21T10:55:55.634Z,100.00
2018-12-21T10:58:24.925Z,100.00
2018-12-21T11:01:01.182Z,100.00
2018-12-21T11:03:33.862Z,100.00
2018-12-21T11:06:10.619Z,100.00
2018-12-21T11:08:39.564Z,100.00
2018-12-21T11:11:08.724Z,100.00
2018-12-21T11:13:37.857Z,100.00
2018-12-21T11:16:27.653Z,100.00
2018-12-21T11:19:05.042Z,100.00
2018-12-21T11:21:34.159Z,100.00
2018-12-21T11:24:10.478Z,100.00
2018-12-21T11:26:47.329Z,100.00
2018-12-21T11:29:19.765Z,100.00
2018-12-21T11:31:48.777Z,100.00
2018-12-21T11:34:25.345Z,100.00
2018-12-21T11:36:58.425Z,100.00
2018-12-21T11:39:53.793Z,100.00
2018-12-21T11:43:03.693Z,100.00
2018-12-21T11:45:43.093Z,100.00
2018-12-21T11:48:20.901Z,100.00
2018-12-21T11:50:50.137Z,100.00
2018-12-21T11:53:20.082Z,100.00
2018-12-21T11:56:37.649Z,100.00
2018-12-21T11:59:06.670Z,100.00
2018-12-21T12:02:02.081Z,100.00
2018-12-21T12:04:39.860Z,100.00
2018-12-21T12:07:36.726Z,100.00
2018-12-21T12:10:14.262Z,100.00
2018-12-21T12:13:11.977Z,100.00
2018-12-21T12:15:41.111Z,100.00
2018-12-21T12:18:14.061Z,100.00
2018-12-21T12:20:43.089Z,100.00
2018-12-21T12:23:12.126Z,100.00
2018-12-21T12:25:41.281Z,100.00
2018-12-21T12:28:10.329Z,100.00
2018-12-21T12:30:39.352Z,100.00
2018-12-21T12:33:08.434Z,100.00
2018-12-21T12:35:37.451Z,100.00
2018-12-21T12:38:06.505Z,100.00
2018-12-21T12:40:35.557Z,100.00
2018-12-21T12:43:04.657Z,100.00
2018-12-21T12:45:33.734Z,100.00
2018-12-21T12:48:09.878Z,100.00
2018-12-21T12:50:38.961Z,100.00
2018-12-21T12:53:15.557Z,100.00
2018-12-21T12:56:05.989Z,100.00
2018-12-21T12:58:47.511Z,100.00
2018-12-21T13:01:20.001Z,100.00
2018-12-21T13:03:50.873Z,100.00
2018-12-21T13:06:36.841Z,100.00
2018-12-21T13:09:08.234Z,100.00
2018-12-21T13:11:37.877Z,100.00
2018-12-21T13:14:07.039Z,100.00
2018-12-21T13:16:36.035Z,100.00
2018-12-21T13:19:05.237Z,100.00
2018-12-21T13:21:37.432Z,100.00
2018-12-21T13:24:06.424Z,100.00
2018-12-21T13:26:37.549Z,100.00
2018-12-21T13:29:06.558Z,100.00
2018-12-21T13:31:35.562Z,100.00
2018-12-21T13:34:04.761Z,99.68
2018-12-21T13:36:57.350Z,99.15
2018-12-21T13:39:26.447Z,98.61
2018-12-21T13:41:55.676Z,96.43
2018-12-21T13:44:25.250Z,96.28
2018-12-21T13:46:54.488Z,96.41
2018-12-21T13:49:25.499Z,95.33
2018-12-21T13:51:54.569Z,95.29
2018-12-21T13:54:23.645Z,94.92
2018-12-21T13:56:52.729Z,93.70
2018-12-21T13:59:21.787Z,92.37
2018-12-21T14:01:51.897Z,92.27
2018-12-21T14:04:21.102Z,91.39
2018-12-21T14:06:50.203Z,91.02
2018-12-21T14:09:19.309Z,91.47
2018-12-21T14:11:48.326Z,91.60
2018-12-21T14:14:17.412Z,91.81
2018-12-21T14:16:52.449Z,92.43
2018-12-21T14:19:21.512Z,92.03
2018-12-21T14:21:57.776Z,91.83
2018-12-21T14:24:26.747Z,92.19
2018-12-21T14:26:56.876Z,91.54
2018-12-21T14:29:33.764Z,91.73
2018-12-21T14:32:10.930Z,90.54
2018-12-21T14:34:39.929Z,89.72
2018-12-21T14:37:09.906Z,89.26
2018-12-21T14:39:38.885Z,88.36
2018-12-21T14:42:08.006Z,87.59
2018-12-21T14:44:37.069Z,86.59
2018-12-21T14:47:14.586Z,86.07
2018-12-21T14:49:43.713Z,86.51
2018-12-21T14:52:12.730Z,85.38
2018-12-21T14:54:41.900Z,85.94
2018-12-21T14:57:11.069Z,86.03
2018-12-21T14:59:40.012Z,85.05
2018-12-21T15:02:09.258Z,84.73
2018-12-21T15:04:38.925Z,84.43
2018-12-21T15:07:08.662Z,85.22
2018-12-21T15:09:39.494Z,84.47
2018-12-21T15:12:08.649Z,84.31
2018-12-21T15:14:37.709Z,84.42
2018-12-21T15:17:06.750Z,83.77
2018-12-21T15:19:35.876Z,84.50
2018-12-21T15:22:04.899Z,84.11
2018-12-21T15:24:34.173Z,84.13
2018-12-21T15:27:03.231Z,84.17
2018-12-21T15:29:32.585Z,84.24
2018-12-21T15:32:01.741Z,84.33
2018-12-21T15:34:30.736Z,84.07
2018-12-21T15:36:59.785Z,83.91
2018-12-21T15:39:28.825Z,82.75
2018-12-21T15:41:58.242Z,82.79
2018-12-21T15:44:27.269Z,81.94
2018-12-21T15:46:56.233Z,81.40
2018-12-21T15:49:30.164Z,80.16
2018-12-21T15:51:59.209Z,78.75
2018-12-21T15:54:28.302Z,78.39
2018-12-21T15:56:57.329Z,77.65
2018-12-21T15:59:26.465Z,77.25
2018-12-21T16:01:55.545Z,77.24
2018-12-21T16:04:24.606Z,77.99
2018-12-21T16:06:53.635Z,79.69
2018-12-21T16:09:22.761Z,80.94
2018-12-21T16:11:51.861Z,82.26
2018-12-21T16:14:20.892Z,82.79
2018-12-21T16:16:49.930Z,83.43
2018-12-21T16:19:19.914Z,83.39
2018-12-21T16:21:49.278Z,83.43
2018-12-21T16:24:18.357Z,82.15
2018-12-21T16:26:47.373Z,81.99
2018-12-21T16:29:20.009Z,81.71
2018-12-21T16:31:49.025Z,80.85
2018-12-21T16:34:18.045Z,80.49
2018-12-21T16:36:47.045Z,79.97
2018-12-21T16:39:23.562Z,79.83
2018-12-21T16:41:52.766Z,79.97
2018-12-21T16:44:21.849Z,79.99
2018-12-21T16:46:50.874Z,80.57
2018-12-21T16:49:40.385Z,80.09
2018-12-21T16:52:09.381Z,79.96
2018-12-21T16:54:38.536Z,80.65
2018-12-21T16:57:07.544Z,80.20
2018-12-21T16:59:57.909Z,81.03
2018-12-21T17:02:26.973Z,80.23
2018-12-21T17:04:57.057Z,80.85
2018-12-21T17:07:26.155Z,81.38
2018-12-21T17:09:55.229Z,82.79
2018-12-21T17:12:28.406Z,82.61
2018-12-21T17:15:01.316Z,81.74
2018-12-21T17:17:34.210Z,80.80
2018-12-21T17:20:09.543Z,80.47
2018-12-21T17:22:43.841Z,80.85
2018-12-21T17:25:16.822Z,80.70
2018-12-21T17:27:49.993Z,82.13
2018-12-21T17:30:23.556Z,83.02
2018-12-21T17:32:56.458Z,84.76
2018-12-21T17:35:29.029Z,85.73
2018-12-21T17:37:57.948Z,87.82
2018-12-21T17:40:27.009Z,88.25
2018-12-21T17:42:56.001Z,89.30
2018-12-21T17:45:25.455Z,89.84
2018-12-21T17:47:54.565Z,91.24
2018-12-21T17:50:23.681Z,91.47
2018-12-21T17:52:52.757Z,92.47
2018-12-21T17:55:21.987Z,93.84
2018-12-21T17:57:50.993Z,94.53
2018-12-21T18:00:21.324Z,95.76
2018-12-21T18:02:53.909Z,96.11
2018-12-21T18:05:24.157Z,96.52
2018-12-21T18:07:54.149Z,96.18
2018-12-21T18:10:23.321Z,96.03
2018-12-21T18:12:52.449Z,96.63
2018-12-21T18:15:21.610Z,96.93
2018-12-21T18:17:50.777Z,97.08
2018-12-21T18:20:19.984Z,97.26
2018-12-21T18:22:49.166Z,97.01
2018-12-21T18:25:21.345Z,97.56
2018-12-21T18:27:53.381Z,97.20
2018-12-21T18:30:27.109Z,97.72
2018-12-21T18:32:56.933Z,97.12
2018-12-21T18:35:26.403Z,97.28
2018-12-21T18:38:01.716Z,96.85
2018-12-21T18:40:31.989Z,96.97
2018-12-21T18:43:01.309Z,96.87
2018-12-21T18:45:30.642Z,96.57
2018-12-21T18:47:59.967Z,96.98
2018-12-21T18:50:30.268Z,97.24
2018-12-21T18:52:59.654Z,97.29
2018-12-21T18:55:29.008Z,96.93
2018-12-21T18:57:58.669Z,97.25
2018-12-21T19:00:28.069Z,96.41
2018-12-21T19:02:57.385Z,96.91
2018-12-21T19:05:26.769Z,96.21
2018-12-21T19:07:56.326Z,96.32
2018-12-21T19:10:25.825Z,96.01
2018-12-21T19:12:55.135Z,96.16
2018-12-21T19:15:24.366Z,95.28
2018-12-21T19:17:53.650Z,95.23
2018-12-21T19:20:23.012Z,94.92
2018-12-21T19:22:52.323Z,94.38
2018-12-21T19:25:21.728Z,95.10
2018-12-21T19:27:50.989Z,94.31
2018-12-21T19:30:20.409Z,93.64
2018-12-21T19:32:49.861Z,93.02
2018-12-21T19:35:27.337Z,91.86
2018-12-21T19:37:50.810Z,91.81
2018-12-21T19:40:20.254Z,92.17
2018-12-21T19:42:49.665Z,91.63
2018-12-21T19:45:19.186Z,91.36
2018-12-21T19:47:48.701Z,91.04
2018-12-21T19:50:18.198Z,92.06
2018-12-21T19:52:47.625Z,92.20
2018-12-21T19:55:31.965Z,91.88
2018-12-21T19:58:01.479Z,92.54
2018-12-21T20:00:30.989Z,92.33
2018-12-21T20:03:00.538Z,92.13
2018-12-21T20:05:30.045Z,92.25
2018-12-21T20:07:59.441Z,91.15
2018-12-21T20:10:28.886Z,91.04
2018-12-21T20:12:59.231Z,90.78
2018-12-21T20:15:28.710Z,91.14
2018-12-21T20:17:58.026Z,90.77
2018-12-21T20:20:27.650Z,90.33
2018-12-21T20:22:57.410Z,90.38
2018-12-21T20:25:26.812Z,91.59
2018-12-21T20:27:56.277Z,90.43
2018-12-21T20:30:25.802Z,91.69
2018-12-21T20:32:55.440Z,92.42
2018-12-21T20:35:25.006Z,93.56
2018-12-21T20:37:54.329Z,93.96
2018-12-21T20:40:23.794Z,94.72
2018-12-21T20:42:53.170Z,95.51
2018-12-21T20:45:22.720Z,95.96
2018-12-21T20:47:52.169Z,96.23
2018-12-21T20:50:21.421Z,95.76
2018-12-21T20:52:51.517Z,95.91
2018-12-21T20:55:20.882Z,96.38
2018-12-21T20:57:52.489Z,96.18
2018-12-21T21:00:22.057Z,96.64
2018-12-21T21:02:51.485Z,96.59
2018-12-21T21:05:20.940Z,96.10
2018-12-21T21:07:50.361Z,95.83
2018-12-21T21:10:20.409Z,96.27
2018-12-21T21:12:49.800Z,94.98
2018-12-21T21:15:19.229Z,94.63
2018-12-21T21:17:48.553Z,92.91
2018-12-21T21:20:17.903Z,92.14
2018-12-21T21:22:47.375Z,91.78
2018-12-21T21:25:16.690Z,91.41
2018-12-21T21:27:46.012Z,91.25
2018-12-21T21:30:18.237Z,91.04
2018-12-21T21:32:47.736Z,91.24
2018-12-21T21:35:16.970Z,91.00
2018-12-21T21:37:46.487Z,90.67
2018-12-21T21:40:18.342Z,91.01
2018-12-21T21:42:57.218Z,91.63
2018-12-21T21:45:19.917Z,90.06
2018-12-21T21:47:49.143Z,89.99
2018-12-21T21:50:18.233Z,90.97
2018-12-21T21:52:47.308Z,89.92
2018-12-21T21:55:16.474Z,89.25
2018-12-21T21:57:45.618Z,90.37
2018-12-21T22:00:15.030Z,90.40
2018-12-21T22:02:44.288Z,90.08
2018-12-21T22:05:14.321Z,89.68
2018-12-21T22:07:43.468Z,90.41
2018-12-21T22:10:12.620Z,90.17
2018-12-21T22:12:41.661Z,89.99
2018-12-21T22:15:11.849Z,90.71
2018-12-21T22:17:40.861Z,90.27
2018-12-21T22:20:12.265Z,90.85
2018-12-21T22:22:41.359Z,89.88
2018-12-21T22:25:10.389Z,89.97
2018-12-21T22:27:47.723Z,89.63
2018-12-21T22:30:12.017Z,89.08
2018-12-21T22:32:41.085Z,88.64
2018-12-21T22:35:10.038Z,89.55
2018-12-21T22:37:39.393Z,89.43
2018-12-21T22:40:08.714Z,88.52
2018-12-21T22:42:37.664Z,88.82
2018-12-21T22:45:07.885Z,88.42
2018-12-21T22:47:36.906Z,88.27
2018-12-21T22:50:07.329Z,88.69
2018-12-21T22:52:36.802Z,88.17
2018-12-21T22:55:07.034Z,87.92
2018-12-21T22:57:36.261Z,88.63
2018-12-21T23:00:09.826Z,88.32
2018-12-21T23:02:38.809Z,88.41
2018-12-21T23:05:11.109Z,88.55
2018-12-21T23:07:40.145Z,88.65
2018-12-21T23:10:09.395Z,89.22
2018-12-21T23:12:38.489Z,88.50
2018-12-21T23:15:07.786Z,88.90
2018-12-21T23:17:37.714Z,89.57
2018-12-21T23:20:06.998Z,89.02
2018-12-21T23:22:36.029Z,89.62
2018-12-21T23:25:05.690Z,89.59
2018-12-21T23:27:34.762Z,90.43
2018-12-21T23:30:03.829Z,90.26
2018-12-21T23:32:32.878Z,90.82
2018-12-21T23:35:01.997Z,91.60
2018-12-21T23:37:31.041Z,92.16
2018-12-21T23:40:00.100Z,91.92
2018-12-21T23:42:29.051Z,92.18
2018-12-21T23:44:58.077Z,92.12
2018-12-21T23:47:27.172Z,91.36
2018-12-21T23:49:56.397Z,90.92
2018-12-21T23:52:25.482Z,91.52
2018-12-21T23:54:54.970Z,91.49
2018-12-21T23:57:24.023Z,91.72
2018-12-21T23:59:53.014Z,91.59
